createdAt,value
2019-04-01T00:01:44.033Z,7.60
2019-04-01T00:04:13.531Z,7.73
2019-04-01T00:06:42.876Z,7.77
2019-04-01T00:09:12.206Z,7.65
2019-04-01T00:11:41.583Z,7.50
2019-04-01T00:14:10.931Z,7.61
2019-04-01T00:16:40.302Z,7.76
2019-04-01T00:19:09.669Z,7.82
2019-04-01T00:21:39.029Z,7.98
2019-04-01T00:24:08.383Z,8.01
2019-04-01T00:26:37.741Z,8.12
2019-04-01T00:29:07.107Z,8.15
2019-04-01T00:31:36.435Z,8.22
2019-04-01T00:34:05.800Z,8.27
2019-04-01T00:36:35.121Z,8.24
2019-04-01T00:39:06.624Z,8.30
2019-04-01T00:41:41.782Z,8.27
2019-04-01T00:44:12.799Z,8.26
2019-04-01T00:46:42.126Z,8.31
2019-04-01T00:49:11.507Z,8.31
2019-04-01T00:51:40.818Z,8.40
2019-04-01T00:54:10.221Z,8.41
2019-04-01T00:56:39.555Z,8.35
2019-04-01T00:59:08.915Z,8.24
2019-04-01T01:01:38.273Z,8.24
2019-04-01T01:04:07.637Z,8.15
2019-04-01T01:06:36.997Z,8.16
2019-04-01T01:09:06.884Z,8.10
2019-04-01T01:11:36.268Z,8.18
2019-04-01T01:14:05.733Z,8.12
2019-04-01T01:16:35.083Z,8.09
2019-04-01T01:19:04.554Z,8.10
2019-04-01T01:21:34.781Z,7.98
2019-04-01T01:24:04.208Z,7.96
2019-04-01T01:26:33.543Z,7.84
2019-04-01T01:29:02.897Z,7.76
2019-04-01T01:31:32.288Z,7.75
2019-04-01T01:34:01.638Z,7.69
2019-04-01T01:36:31.065Z,7.54
2019-04-01T01:39:00.434Z,7.42
2019-04-01T01:41:29.801Z,7.48
2019-04-01T01:43:59.251Z,7.31
2019-04-01T01:46:28.642Z,7.29
2019-04-01T01:48:58.036Z,7.15
2019-04-01T01:51:27.444Z,7.08
2019-04-01T01:53:56.758Z,7.09
2019-04-01T01:56:26.126Z,7.03
2019-04-01T01:58:55.479Z,6.87
2019-04-01T02:01:24.835Z,6.73
2019-04-01T02:03:54.245Z,6.75
2019-04-01T02:06:23.627Z,6.67
2019-04-01T02:08:53.004Z,6.68
2019-04-01T02:11:22.440Z,6.67
2019-04-01T02:13:51.755Z,6.64
2019-04-01T02:16:21.126Z,6.50
2019-04-01T02:18:50.480Z,6.46
2019-04-01T02:21:19.839Z,6.48
2019-04-01T02:23:49.197Z,6.37
2019-04-01T02:26:18.579Z,6.41
2019-04-01T02:28:48.025Z,6.37
2019-04-01T02:31:17.375Z,6.35
2019-04-01T02:33:46.774Z,6.32
2019-04-01T02:36:16.159Z,6.23
2019-04-01T02:38:45.573Z,6.19
2019-04-01T02:41:14.928Z,6.18
2019-04-01T02:43:44.286Z,6.26
2019-04-01T02:46:13.661Z,6.22
2019-04-01T02:48:43.078Z,6.13
2019-04-01T02:51:12.393Z,6.19
2019-04-01T02:53:41.804Z,6.16
2019-04-01T02:56:11.178Z,6.17
2019-04-01T02:58:40.559Z,6.21
2019-04-01T03:01:09.912Z,6.16
2019-04-01T03:03:39.247Z,6.12
2019-04-01T03:06:08.609Z,6.10
2019-04-01T03:08:37.960Z,6.04
2019-04-01T03:11:10.361Z,6.00
2019-04-01T03:13:38.469Z,5.97
2019-04-01T03:16:07.836Z,6.00
2019-04-01T03:18:37.197Z,6.09
2019-04-01T03:21:06.598Z,6.00
2019-04-01T03:23:35.946Z,5.99
2019-04-01T03:26:05.300Z,6.04
2019-04-01T03:28:34.657Z,6.04
2019-04-01T03:31:04.086Z,6.07
2019-04-01T03:33:33.461Z,6.04
2019-04-01T03:36:02.825Z,6.01
2019-04-01T03:38:32.209Z,6.02
2019-04-01T03:41:01.543Z,5.92
2019-04-01T03:43:30.910Z,5.86
2019-04-01T03:46:00.515Z,5.88
2019-04-01T03:48:29.816Z,5.88
2019-04-01T03:50:59.233Z,5.83
2019-04-01T03:53:28.592Z,5.87
2019-04-01T03:55:57.938Z,5.90
2019-04-01T03:58:27.307Z,5.92
2019-04-01T04:00:56.711Z,5.86
2019-04-01T04:03:26.063Z,5.83
2019-04-01T04:05:55.427Z,5.66
2019-04-01T04:08:24.766Z,5.54
2019-04-01T04:10:54.107Z,5.49
2019-04-01T04:13:23.535Z,5.50
2019-04-01T04:15:57.520Z,5.36
2019-04-01T04:18:24.113Z,5.24
2019-04-01T04:20:53.962Z,5.19
2019-04-01T04:23:23.328Z,5.17
2019-04-01T04:25:52.653Z,5.07
2019-04-01T04:28:22.045Z,5.10
2019-04-01T04:30:51.419Z,5.08
2019-04-01T04:33:20.777Z,5.11
2019-04-01T04:35:50.212Z,5.06
2019-04-01T04:38:19.544Z,5.05
2019-04-01T04:40:48.912Z,5.01
2019-04-01T04:43:18.304Z,4.86
2019-04-01T04:45:47.630Z,4.98
2019-04-01T04:48:16.990Z,4.95
2019-04-01T04:50:46.359Z,4.89
2019-04-01T04:53:15.705Z,4.91
2019-04-01T04:55:45.046Z,5.00
2019-04-01T04:58:14.417Z,5.05
2019-04-01T05:00:43.762Z,5.07
2019-04-01T05:03:13.157Z,5.07
2019-04-01T05:05:42.665Z,5.18
2019-04-01T05:08:12.030Z,5.19
2019-04-01T05:10:41.390Z,5.28
2019-04-01T05:13:10.747Z,5.39
2019-04-01T05:15:40.107Z,5.47
2019-04-01T05:18:09.550Z,5.49
2019-04-01T05:20:41.131Z,5.58
2019-04-01T05:23:12.613Z,5.60
2019-04-01T05:25:42.477Z,5.62
2019-04-01T05:28:14.509Z,5.64
2019-04-01T05:30:46.402Z,5.73
2019-04-01T05:33:18.520Z,5.69
2019-04-01T05:35:47.837Z,5.82
2019-04-01T05:38:18.095Z,5.93
2019-04-01T05:40:47.464Z,6.03
2019-04-01T05:43:16.852Z,6.08
2019-04-01T05:45:46.679Z,6.13
2019-04-01T05:48:17.387Z,6.19
2019-04-01T05:50:46.736Z,6.28
2019-04-01T05:53:16.103Z,6.38
2019-04-01T05:55:45.445Z,6.48
2019-04-01T05:58:14.823Z,6.57
2019-04-01T06:00:48.096Z,6.63
2019-04-01T06:03:17.459Z,6.73
2019-04-01T06:05:46.929Z,6.86
2019-04-01T06:08:17.376Z,6.96
2019-04-01T06:10:46.825Z,7.04
2019-04-01T06:13:16.591Z,7.14
2019-04-01T06:15:45.955Z,7.29
2019-04-01T06:18:15.321Z,7.33
2019-04-01T06:20:44.785Z,7.41
2019-04-01T06:23:14.171Z,7.45
2019-04-01T06:25:43.539Z,7.59
2019-04-01T06:28:12.860Z,7.74
2019-04-01T06:30:42.176Z,7.81
2019-04-01T06:33:11.645Z,7.92
2019-04-01T06:35:41.038Z,8.10
2019-04-01T06:38:10.529Z,8.23
2019-04-01T06:40:39.899Z,8.30
2019-04-01T06:43:09.525Z,8.51
2019-04-01T06:45:38.943Z,8.60
2019-04-01T06:48:08.376Z,8.74
2019-04-01T06:50:37.733Z,8.85
2019-04-01T06:53:07.121Z,8.95
2019-04-01T06:55:36.810Z,9.05
2019-04-01T06:58:06.265Z,9.18
2019-04-01T07:00:37.110Z,9.32
2019-04-01T07:03:06.491Z,9.32
2019-04-01T07:05:36.303Z,9.41
2019-04-01T07:08:05.706Z,9.63
2019-04-01T07:10:35.237Z,9.76
2019-04-01T07:13:04.626Z,9.92
2019-04-01T07:15:34.027Z,9.99
2019-04-01T07:18:03.396Z,10.13
2019-04-01T07:20:32.817Z,10.25
2019-04-01T07:23:02.218Z,10.36
2019-04-01T07:25:34.116Z,10.44
2019-04-01T07:28:02.758Z,10.53
2019-04-01T07:30:32.207Z,10.67
2019-04-01T07:33:01.558Z,10.86
2019-04-01T07:35:31.801Z,11.05
2019-04-01T07:38:01.150Z,11.21
2019-04-01T07:40:30.506Z,11.37
2019-04-01T07:43:00.159Z,11.49
2019-04-01T07:45:29.682Z,11.65
2019-04-01T07:47:59.143Z,11.85
2019-04-01T07:50:28.594Z,11.92
2019-04-01T07:52:57.984Z,12.12
2019-04-01T07:55:27.361Z,12.28
2019-04-01T07:57:59.572Z,12.40
2019-04-01T08:00:28.329Z,12.57
2019-04-01T08:02:57.820Z,12.63
2019-04-01T08:05:27.385Z,12.55
2019-04-01T08:07:57.262Z,12.68
2019-04-01T08:10:26.990Z,12.90
2019-04-01T08:12:56.578Z,12.98
2019-04-01T08:15:25.929Z,13.10
2019-04-01T08:17:55.294Z,13.34
2019-04-01T08:20:24.683Z,13.54
2019-04-01T08:22:54.085Z,13.77
2019-04-01T08:25:23.520Z,13.95
2019-04-01T08:27:52.993Z,14.14
2019-04-01T08:30:22.388Z,14.28
2019-04-01T08:32:52.941Z,14.43
2019-04-01T08:35:22.367Z,14.61
2019-04-01T08:37:51.975Z,14.61
2019-04-01T08:40:21.399Z,14.81
2019-04-01T08:42:51.169Z,14.81
2019-04-01T08:45:20.560Z,15.29
2019-04-01T08:47:49.937Z,15.29
2019-04-01T08:50:19.722Z,15.22
2019-04-01T08:52:49.134Z,15.46
2019-04-01T08:55:18.517Z,15.64
2019-04-01T08:57:47.921Z,15.49
2019-04-01T09:00:17.522Z,15.57
2019-04-01T09:02:46.970Z,15.69
2019-04-01T09:05:16.304Z,15.86
2019-04-01T09:07:45.780Z,16.15
2019-04-01T09:10:15.210Z,16.21
2019-04-01T09:12:45.194Z,16.18
2019-04-01T09:15:15.080Z,16.38
2019-04-01T09:17:44.446Z,16.59
2019-04-01T09:20:13.935Z,16.65
2019-04-01T09:22:43.296Z,16.80
2019-04-01T09:25:12.644Z,16.94
2019-04-01T09:27:42.012Z,16.84
2019-04-01T09:30:11.866Z,16.88
2019-04-01T09:32:41.226Z,17.08
2019-04-01T09:35:10.986Z,16.89
2019-04-01T09:37:40.444Z,17.15
2019-04-01T09:40:10.211Z,17.37
2019-04-01T09:42:39.724Z,17.45
2019-04-01T09:45:09.674Z,17.53
2019-04-01T09:47:39.059Z,17.59
2019-04-01T09:50:08.665Z,17.69
2019-04-01T09:52:38.130Z,17.64
2019-04-01T09:55:07.835Z,17.76
2019-04-01T09:57:37.199Z,17.92
2019-04-01T10:00:07.245Z,18.15
2019-04-01T10:02:36.739Z,18.30
2019-04-01T10:05:06.598Z,18.33
2019-04-01T10:07:36.106Z,18.39
2019-04-01T10:10:06.199Z,18.58
2019-04-01T10:12:35.551Z,18.73
2019-04-01T10:15:05.366Z,18.87
2019-04-01T10:17:34.713Z,18.76
2019-04-01T10:20:04.368Z,18.94
2019-04-01T10:22:33.743Z,19.01
2019-04-01T10:25:03.200Z,19.50
2019-04-01T10:27:32.578Z,20.25
2019-04-01T10:30:01.968Z,20.66
2019-04-01T10:32:31.354Z,20.66
2019-04-01T10:35:00.743Z,20.84
2019-04-01T10:37:30.147Z,20.93
2019-04-01T10:40:00.428Z,21.86
2019-04-01T10:42:30.194Z,22.20
2019-04-01T10:44:59.585Z,22.43
2019-04-01T10:47:29.008Z,22.59
2019-04-01T10:49:58.628Z,23.35
2019-04-01T10:52:28.952Z,23.26
2019-04-01T10:54:58.299Z,23.43
2019-04-01T10:57:28.014Z,22.99
2019-04-01T10:59:57.580Z,23.42
2019-04-01T11:02:26.924Z,23.76
2019-04-01T11:04:57.454Z,23.89
2019-04-01T11:07:26.905Z,24.10
2019-04-01T11:09:56.230Z,24.22
2019-04-01T11:12:25.570Z,23.95
2019-04-01T11:14:54.955Z,24.45
2019-04-01T11:17:24.352Z,24.67
2019-04-01T11:19:53.755Z,24.93
2019-04-01T11:22:23.065Z,25.23
2019-04-01T11:24:52.519Z,25.27
2019-04-01T11:27:21.846Z,25.45
2019-04-01T11:29:51.205Z,25.64
2019-04-01T11:32:20.562Z,25.76
2019-04-01T11:34:49.894Z,25.87
2019-04-01T11:37:19.381Z,25.61
2019-04-01T11:39:48.737Z,25.71
2019-04-01T11:42:18.133Z,25.83
2019-04-01T11:44:47.578Z,26.03
2019-04-01T11:47:16.998Z,26.01
2019-04-01T11:49:46.701Z,26.10
2019-04-01T11:52:16.125Z,26.24
2019-04-01T11:54:45.481Z,26.74
2019-04-01T11:57:14.831Z,26.84
2019-04-01T11:59:44.188Z,27.16
2019-04-01T12:02:13.568Z,26.82
2019-04-01T12:04:42.944Z,27.00
2019-04-01T12:07:12.270Z,27.00
2019-04-01T12:09:41.679Z,26.51
2019-04-01T12:12:22.702Z,25.33
2019-04-01T12:14:42.156Z,25.05
2019-04-01T12:17:11.526Z,25.08
2019-04-01T12:19:40.960Z,25.71
2019-04-01T12:22:11.192Z,25.30
2019-04-01T12:24:40.674Z,25.70
2019-04-01T12:27:10.645Z,26.16
2019-04-01T12:29:40.072Z,26.50
2019-04-01T12:32:09.410Z,27.01
2019-04-01T12:34:42.057Z,27.44
2019-04-01T12:37:09.899Z,27.19
2019-04-01T12:39:39.341Z,27.08
2019-04-01T12:42:09.530Z,26.94
2019-04-01T12:44:39.029Z,26.79
2019-04-01T12:47:08.412Z,26.76
2019-04-01T12:49:37.789Z,26.40
2019-04-01T12:52:07.177Z,26.04
2019-04-01T12:54:36.543Z,26.00
2019-04-01T12:57:05.936Z,26.33
2019-04-01T12:59:35.293Z,26.75
2019-04-01T13:02:04.644Z,26.89
2019-04-01T13:04:36.104Z,26.98
2019-04-01T13:07:06.255Z,27.13
2019-04-01T13:09:35.703Z,26.90
2019-04-01T13:12:05.260Z,26.89
2019-04-01T13:14:40.093Z,27.20
2019-04-01T13:17:08.574Z,27.29
2019-04-01T13:19:38.126Z,27.30
2019-04-01T13:22:09.060Z,27.12
2019-04-01T13:24:39.110Z,27.30
2019-04-01T13:27:09.274Z,27.08
2019-04-01T13:29:39.023Z,27.42
2019-04-01T13:32:08.389Z,27.22
2019-04-01T13:34:37.850Z,27.51
2019-04-01T13:37:07.385Z,27.67
2019-04-01T13:39:36.713Z,27.43
2019-04-01T13:42:06.119Z,27.56
2019-04-01T13:44:37.256Z,27.48
2019-04-01T13:47:06.600Z,27.24
2019-04-01T13:49:36.002Z,27.28
2019-04-01T13:52:06.154Z,27.43
2019-04-01T13:54:35.495Z,27.53
2019-04-01T13:57:04.887Z,27.71
2019-04-01T13:59:48.040Z,27.89
2019-04-01T14:02:05.355Z,27.82
2019-04-01T14:04:34.734Z,28.11
2019-04-01T14:07:04.292Z,28.14
2019-04-01T14:09:33.721Z,27.94
2019-04-01T14:12:03.110Z,28.01
2019-04-01T14:14:32.445Z,28.08
2019-04-01T14:17:01.847Z,27.99
2019-04-01T14:19:31.288Z,28.07
2019-04-01T14:22:00.648Z,27.90
2019-04-01T14:24:30.014Z,27.95
2019-04-01T14:26:59.410Z,27.52
2019-04-01T14:29:28.731Z,27.58
2019-04-01T14:31:58.119Z,27.73
2019-04-01T14:34:27.541Z,27.99
2019-04-01T14:36:56.868Z,27.81
2019-04-01T14:39:26.218Z,27.77
2019-04-01T14:41:55.702Z,27.89
2019-04-01T14:44:25.087Z,27.67
2019-04-01T14:46:54.457Z,27.38
2019-04-01T14:49:23.862Z,26.85
2019-04-01T14:51:53.196Z,26.59
2019-04-01T14:54:22.591Z,26.52
2019-04-01T14:56:52.016Z,26.34
2019-04-01T14:59:21.376Z,26.35
2019-04-01T15:01:50.708Z,26.09
2019-04-01T15:04:20.149Z,26.26
2019-04-01T15:06:49.550Z,26.32
2019-04-01T15:09:19.354Z,26.14
2019-04-01T15:11:48.827Z,25.99
2019-04-01T15:14:18.210Z,26.08
2019-04-01T15:16:47.602Z,25.98
2019-04-01T15:19:16.951Z,25.94
2019-04-01T15:21:47.471Z,26.04
2019-04-01T15:24:17.020Z,26.02
2019-04-01T15:26:46.399Z,25.72
2019-04-01T15:29:15.774Z,25.55
2019-04-01T15:31:45.416Z,25.46
2019-04-01T15:34:14.734Z,25.42
2019-04-01T15:36:44.158Z,25.12
2019-04-01T15:39:15.383Z,25.17
2019-04-01T15:41:45.442Z,24.70
2019-04-01T15:44:15.138Z,24.29
2019-04-01T15:46:44.567Z,23.93
2019-04-01T15:49:13.984Z,24.06
2019-04-01T15:51:43.361Z,23.75
2019-04-01T15:54:13.154Z,23.42
2019-04-01T15:56:42.544Z,23.13
2019-04-01T15:59:11.877Z,23.00
2019-04-01T16:01:41.209Z,22.93
2019-04-01T16:04:10.669Z,22.91
2019-04-01T16:06:40.035Z,22.76
2019-04-01T16:09:09.618Z,22.86
2019-04-01T16:11:39.044Z,22.64
2019-04-01T16:14:08.449Z,22.44
2019-04-01T16:19:06.033Z,22.09
2019-04-01T16:21:35.429Z,21.69
2019-04-01T16:24:04.959Z,21.44
2019-04-01T16:26:34.341Z,21.12
2019-04-01T16:29:03.984Z,20.82
2019-04-01T16:31:33.394Z,20.52
2019-04-01T16:34:02.775Z,20.21
2019-04-01T16:36:32.232Z,20.07
2019-04-01T16:39:01.606Z,19.87
2019-04-01T16:41:31.026Z,19.64
2019-04-01T16:44:00.459Z,19.51
2019-04-01T16:46:29.981Z,19.26
2019-04-01T16:48:59.479Z,19.07
2019-04-01T16:51:29.001Z,18.95
2019-04-01T16:53:58.452Z,18.84
2019-04-01T16:56:27.959Z,18.70
2019-04-01T16:58:57.426Z,18.57
2019-04-01T17:01:26.867Z,18.43
2019-04-01T17:03:56.339Z,18.44
2019-04-01T17:06:26.134Z,18.33
2019-04-01T17:08:55.479Z,18.20
2019-04-01T17:11:24.925Z,18.16
2019-04-01T17:13:55.677Z,17.92
2019-04-01T17:16:25.856Z,18.06
2019-04-01T17:18:57.681Z,17.99
2019-04-01T17:21:26.492Z,17.84
2019-04-01T17:23:55.884Z,17.86
2019-04-01T17:26:25.250Z,17.77
2019-04-01T17:28:57.449Z,17.61
2019-04-01T17:31:26.891Z,17.58
2019-04-01T17:33:56.262Z,17.45
2019-04-01T17:36:25.701Z,17.20
2019-04-01T17:38:55.127Z,17.18
2019-04-01T17:41:24.545Z,16.98
2019-04-01T17:43:53.956Z,17.09
2019-04-01T17:46:26.272Z,17.07
2019-04-01T17:48:54.559Z,17.06
2019-04-01T17:51:23.955Z,17.04
2019-04-01T17:53:53.464Z,17.07
2019-04-01T17:56:22.938Z,16.98
2019-04-01T17:58:52.377Z,16.98
2019-04-01T18:01:21.773Z,16.84
2019-04-01T18:03:51.185Z,16.76
2019-04-01T18:06:20.945Z,16.82
2019-04-01T18:08:50.333Z,16.68
2019-04-01T18:11:19.816Z,16.59
2019-04-01T18:13:50.142Z,16.52
2019-04-01T18:16:20.317Z,16.57
2019-04-01T18:18:49.703Z,16.46
2019-04-01T18:21:19.090Z,16.31
2019-04-01T18:23:48.485Z,16.24
2019-04-01T18:26:18.281Z,16.07
2019-04-01T18:28:47.828Z,15.84
2019-04-01T18:31:17.292Z,15.81
2019-04-01T18:33:56.029Z,15.77
2019-04-01T18:36:18.797Z,15.65
2019-04-01T18:38:48.245Z,15.70
2019-04-01T18:41:17.729Z,15.53
2019-04-01T18:43:47.340Z,15.53
2019-04-01T18:46:16.805Z,15.42
2019-04-01T18:48:46.200Z,15.20
2019-04-01T18:51:15.646Z,15.19
2019-04-01T18:53:45.057Z,15.02
2019-04-01T18:56:14.471Z,15.00
2019-04-01T18:58:43.839Z,14.99
2019-04-01T19:01:13.215Z,14.97
2019-04-01T19:03:43.068Z,14.85
2019-04-01T19:06:12.826Z,14.73
2019-04-01T19:08:42.232Z,14.79
2019-04-01T19:11:11.677Z,14.79
2019-04-01T19:13:42.250Z,14.70
2019-04-01T19:16:14.419Z,14.63
2019-04-01T19:18:43.275Z,14.60
2019-04-01T19:21:12.727Z,14.55
2019-04-01T19:23:42.175Z,14.59
2019-04-01T19:26:11.597Z,14.58
2019-04-01T19:28:41.087Z,14.60
2019-04-01T19:31:11.999Z,14.61
2019-04-01T19:33:41.481Z,14.55
2019-04-01T19:36:10.882Z,14.54
2019-04-01T19:38:40.340Z,14.51
2019-04-01T19:41:09.950Z,14.46
2019-04-01T19:43:39.295Z,14.38
2019-04-01T19:46:09.440Z,14.34
2019-04-01T19:48:39.208Z,14.32
2019-04-01T19:51:08.673Z,14.23
2019-04-01T19:53:38.711Z,14.14
2019-04-01T19:56:08.130Z,14.19
2019-04-01T19:58:37.574Z,14.19
2019-04-01T20:01:06.991Z,14.19
2019-04-01T20:03:36.414Z,14.15
2019-04-01T20:06:07.412Z,14.11
2019-04-01T20:08:37.227Z,14.06
2019-04-01T20:11:06.641Z,14.05
2019-04-01T20:13:36.157Z,13.90
2019-04-01T20:16:05.577Z,13.91
2019-04-01T20:18:35.322Z,13.85
2019-04-01T20:21:05.850Z,13.84
2019-04-01T20:23:35.237Z,13.84
2019-04-01T20:26:05.069Z,13.83
2019-04-01T20:28:34.439Z,13.79
2019-04-01T20:31:03.818Z,13.75
2019-04-01T20:33:33.227Z,13.69
2019-04-01T20:36:02.756Z,13.67
2019-04-01T20:38:32.240Z,13.65
2019-04-01T20:41:01.672Z,13.58
2019-04-01T20:43:31.065Z,13.61
2019-04-01T20:46:00.866Z,13.67
2019-04-01T20:48:30.307Z,13.70
2019-04-01T20:50:59.641Z,13.72
2019-04-01T20:53:29.041Z,13.69
2019-04-01T20:56:00.778Z,13.67
2019-04-01T20:58:30.135Z,13.69
2019-04-01T21:00:59.524Z,13.60
2019-04-01T21:03:30.171Z,13.55
2019-04-01T21:05:59.639Z,13.49
2019-04-01T21:08:29.074Z,13.42
2019-04-01T21:10:58.480Z,13.32
2019-04-01T21:13:27.939Z,13.27
2019-04-01T21:15:58.228Z,13.15
2019-04-01T21:18:28.530Z,13.16
2019-04-01T21:20:57.934Z,13.17
2019-04-01T21:23:27.326Z,13.11
2019-04-01T21:25:56.737Z,13.10
2019-04-01T21:28:26.118Z,13.09
2019-04-01T21:30:55.476Z,13.06
2019-04-01T21:33:24.870Z,13.01
2019-04-01T21:35:54.353Z,12.96
2019-04-01T21:38:23.682Z,13.02
2019-04-01T21:40:53.052Z,12.99
2019-04-01T21:43:22.406Z,12.93
2019-04-01T21:45:51.825Z,12.91
2019-04-01T21:48:21.233Z,12.90
2019-04-01T21:50:50.642Z,12.81
2019-04-01T21:53:20.020Z,12.86
2019-04-01T21:55:49.405Z,12.82
2019-04-01T21:58:19.138Z,12.80
2019-04-01T22:00:52.240Z,12.80
2019-04-01T22:03:21.631Z,12.81
2019-04-01T22:05:50.976Z,12.85
2019-04-01T22:08:20.568Z,12.67
2019-04-01T22:10:49.961Z,12.74
2019-04-01T22:13:19.300Z,12.74
2019-04-01T22:15:50.068Z,12.77
2019-04-01T22:18:19.889Z,12.72
2019-04-01T22:20:49.305Z,12.73
2019-04-01T22:23:18.823Z,12.79
2019-04-01T22:25:48.256Z,12.79
2019-04-01T22:28:17.611Z,12.82
2019-04-01T22:30:47.044Z,12.77
2019-04-01T22:33:16.428Z,12.73
2019-04-01T22:35:45.848Z,12.70
2019-04-01T22:38:24.645Z,12.75
2019-04-01T22:40:46.251Z,12.71
2019-04-01T22:43:16.051Z,12.64
2019-04-01T22:45:45.412Z,12.59
2019-04-01T22:48:14.787Z,12.53
2019-04-01T22:50:44.198Z,12.45
2019-04-01T22:53:13.582Z,12.26
2019-04-01T22:55:42.959Z,12.20
2019-04-01T22:58:12.406Z,12.07
2019-04-01T23:00:41.842Z,11.97
2019-04-01T23:03:11.436Z,11.93
2019-04-01T23:05:41.252Z,11.78
2019-04-01T23:08:10.579Z,11.65
2019-04-01T23:10:39.937Z,11.56
2019-04-01T23:13:09.333Z,11.50
2019-04-01T23:15:38.653Z,11.40
2019-04-01T23:18:08.084Z,11.25
2019-04-01T23:20:37.490Z,11.24
2019-04-01T23:23:06.864Z,11.13
2019-04-01T23:25:36.298Z,11.04
2019-04-01T23:28:05.677Z,10.86
2019-04-01T23:30:35.061Z,10.87
2019-04-01T23:33:04.474Z,10.85
2019-04-01T23:35:33.836Z,10.80
2019-04-01T23:38:03.212Z,10.80
2019-04-01T23:40:32.881Z,10.72
2019-04-01T23:43:02.365Z,10.69
2019-04-01T23:45:31.707Z,10.72
2019-04-01T23:48:01.139Z,10.76
2019-04-01T23:50:30.536Z,10.72
2019-04-01T23:53:02.160Z,10.67
2019-04-01T23:55:31.528Z,10.61
2019-04-01T23:58:00.930Z,10.65
